My webcam  My webcam


Radar lluvias  rain snow radar


Visita nuestra red de sitios de meteo:

Template documentation
and downloads

And another site



Informes METAR proximidad

   
LEXJ - Santander, Spain
Distancia hasta la estación: ESE 6 km
Actualización: 30-09-2022 17:30
Parcialmente Nublado  
Parcialmente Nublado  
   Viento: NW 18.5 km/h
Viento: NW 18.5 km/h
Temperatura: 18°C
Punto de rocío: 13°C
Humedad: 73%
Baromètro: 1018 hPa
Nublado: Parcialmente Nublado
Visibilidad: More than 10 km
detalles de la nube: Nubes dispersas 2800 ft,
Parcialmente Nublado 7500 ft
LEXJ 301530Z 31010KT 280V340 9999 FEW028 SCT075 18/13 Q1018
LEBB - Bilbao/Sondica, Spain
Distancia hasta la estación: ESE 80 km
Actualización: 30-09-2022 17:30
lluvia, Parcialmente nublado  
lluvia, Parcialmente nublado  
   Viento: West 16.7 km/h
Viento: West 16.7 km/h
Temperatura: 16°C
Punto de rocío: 14°C
Humedad: 88%
Baromètro: 1018 hPa
Nublado: Parcialmente nublado
Visibilidad: 7 km
detalles de la nube: Parcialmente nublado 2100 ft,
Parcialmente nublado 2900 ft
LEBB 301530Z 27009KT 240V300 7000 -RA BKN021 BKN029 16/14 Q1018 TEMPO 3000 RA
LEAS - Asturias/Aviles, Spain
Distancia hasta la estación: W 172 km
Actualización: 30-09-2022 17:30
Nubes dispersas  
Nubes dispersas  
   Viento: WNW 16.7 km/h
Viento: WNW 16.7 km/h
Temperatura: 18°C
Punto de rocío: 11°C
Humedad: 64%
Baromètro: 1019 hPa
Nublado: Nubes dispersas
Visibilidad: More than 10 km
detalles de la nube: Nubes dispersas 5000 ft
LEAS 301530Z 29009KT 270V330 9999 FEW050 18/11 Q1019 NOSIG
LESO - San Sebastian/Fu, Spain
Distancia hasta la estación: E 169 km
Actualización: 30-09-2022 17:30
Parcialmente nublado  
Parcialmente nublado  
   Viento: West 7.4 km/h
Viento: West 7.4 km/h
Temperatura: 18°C
Punto de rocío: 11°C
Humedad: 64%
Baromètro: 1018 hPa
Nublado: Parcialmente nublado
Visibilidad: More than 10 km
detalles de la nube: Parcialmente nublado 6000 ft
LESO 301530Z 28004KT 230V330 9999 BKN060 18/11 Q1018
LEVT - Vitoria, Spain
Distancia hasta la estación: ESE 114 km
Actualización: 30-09-2022 17:30
Parcialmente nublado  
Parcialmente nublado  
   Viento: NW 25.9 km/h
Viento: NW 25.9 km/h
Temperatura: 14°C
Punto de rocío: 10°C
Humedad: 77%
Baromètro: 1018 hPa
Nublado: Parcialmente nublado
Visibilidad: More than 10 km
detalles de la nube: Parcialmente nublado 1800 ft,
Parcialmente nublado 3900 ft
LEVT 301530Z 32014KT 290V350 9999 BKN018 BKN039 14/10 Q1018
LEZG - Zaragoza (mil/Ci, Spain
Distancia hasta la estación: SE 307 km
Actualización: 30-09-2022 17:30
Parcialmente Nublado  
Parcialmente Nublado  
   Viento: WNW 38.9 km/h
Viento: WNW 38.9 km/h
Temperatura: 20°C
Punto de rocío: 8°C
Humedad: 46%
Baromètro: 1015 hPa
Nublado: Parcialmente Nublado
Visibilidad: More than 10 km
detalles de la nube: Parcialmente Nublado 6000 ft
LEZG 301530Z 30021KT 9999 SCT060 20/08 Q1015
LEMD - Madrid ,Spain
Distancia hasta la estación: S 334 km
Actualización: 30-09-2022 17:30
Nubes dispersas  
Nubes dispersas  
   Viento: N 11.1 km/h
Viento: N 11.1 km/h
Temperatura: 20°C
Punto de rocío: 3°C
Humedad: 33%
Baromètro: 1017 hPa
Nublado: Nubes dispersas
Visibilidad: More than 10 km
detalles de la nube: Nubes dispersas 6500 ft
LEMD 301530Z 36006KT 330V050 9999 FEW065 20/03 Q1017 WS R32L WS R32R NOSIG
  

Guión original por  Saratoga-weather.org Adaptado para la plantilla por  Weerstation Leuven

Obra sujeta a una Licencia de Creative Commons

RED DE ESTACIONES DE METEOCLIMATIC

Sello de calidad

ESCTB3900000039011A